This is the latest recevied weather packets stored in our database for station/object EA3EH-1. If no packets are shown the sender has not sent any weather packets the latest 10 day(s).
| Time | Temp. | Humidity | Pressure | Rain* | Wind** | Luminosity | Snow |
|---|---|---|---|---|---|---|---|
| 1777895505 | 24.44° C | 21% | 1007 hPa | 0 mm | - | - | - |
| 1777894305 | 23.89° C | 21% | 1008 hPa | 0 mm | - | - | - |
| 1777893705 | 23.33° C | 21% | 1008 hPa | 0 mm | - | - | - |
| 1777893106 | 22.78° C | 21% | 1008 hPa | 0 mm | - | - | - |
| 1777892505 | 22.78° C | 21% | 1008 hPa | 0 mm | - | - | - |
| 1777891605 | 21.67° C | 22% | 1008 hPa | 0 mm | - | - | - |
| 1777891306 | 21.67° C | 22% | 1008 hPa | 0 mm | - | - | - |
| 1777890406 | 21.67° C | 22% | 1008 hPa | 0 mm | - | - | - |
| 1777889805 | 21.67° C | 22% | 1008 hPa | 0 mm | - | - | - |
| 1777889205 | 21.67° C | 22% | 1008 hPa | 0 mm | - | - | - |
| 1777888908 | 21.11° C | 22% | 1008 hPa | 0 mm | - | - | - |
| 1777888307 | 21.11° C | 22% | 1008 hPa | 0 mm | - | - | - |
| 1777885907 | 20.56° C | 25% | 1008 hPa | 0 mm | - | - | - |
| 1777885607 | 20.56° C | 25% | 1008 hPa | 0 mm | - | - | - |
| 1777885007 | 20° C | 28% | 1008 hPa | 0 mm | - | - | - |
| 1777883206 | 18.89° C | 38% | 1008 hPa | 0 mm | - | - | - |
| 1777882906 | 18.33° C | 38% | 1008 hPa | 0 mm | - | - | - |
| 1777882306 | 17.78° C | 40% | 1008 hPa | 0 mm | - | - | - |
| 1777880807 | 17.78° C | 39% | 1008 hPa | 0 mm | - | - | - |
| 1777878706 | 16.67° C | 50% | 1008 hPa | 0 mm | - | - | - |
| 1777878405 | 16.11° C | 54% | 1008 hPa | 0 mm | - | - | - |
| 1777877510 | 15.56° C | 62% | 1008 hPa | 0 mm | - | - | - |
| 1777877205 | 15° C | 63% | 1008 hPa | 0 mm | - | - | - |
| 1777876905 | 15° C | 64% | 1008 hPa | 0 mm | - | - | - |
| 1777876005 | 14.44° C | 66% | 1009 hPa | 0 mm | - | - | - |
* Rain latest hour (hover to see other rain measurements)
** Current wind speed in m/s (hover to see current wind gust speed)